Time;durP1;ratioP1;P1;durP2;ratioP2;P2;SDS_P1;SDS_P2;PMS_P1;PMS_P2;Temp;Humidity;BMP_temperature;BMP_pressure;BME280_temperature;BME280_humidity;BME280_pressure;Samples;Min_cycle;Max_cycle;Signal;HPM_P1;HPM_P2
2023/03/07 00:02:23;;;;;;;21.75;12.23;;;3.70;99.90;;;;;;5092567;27;20089;-80
2023/03/07 00:04:49;;;;;;;18.60;11.50;;;3.60;99.90;;;;;;5092194;27;20132;-80
2023/03/07 00:07:14;;;;;;;18.33;10.55;;;3.60;99.90;;;;;;5109070;27;20375;-80
2023/03/07 00:09:41;;;;;;;19.73;11.02;;;3.60;99.90;;;;;;5109157;27;20047;-80
2023/03/07 00:12:08;;;;;;;19.63;10.10;;;4.40;99.90;;;;;;5109016;27;20043;-81
2023/03/07 00:14:34;;;;;;;17.50;10.20;;;3.60;99.90;;;;;;5091984;27;20042;-80
2023/03/07 00:17:00;;;;;;;17.25;9.40;;;3.70;99.90;;;;;;5092556;27;20066;-80
2023/03/07 00:19:26;;;;;;;17.50;8.68;;;3.70;99.90;;;;;;5108459;27;20450;-80
2023/03/07 00:21:51;;;;;;;15.48;9.25;;;3.70;99.90;;;;;;5108801;27;20039;-80
2023/03/07 00:24:17;;;;;;;14.10;7.57;;;4.90;99.90;;;;;;5058601;27;20141;-80
2023/03/07 00:26:43;;;;;;;15.63;6.82;;;3.60;99.90;;;;;;5058415;27;20157;-81
2023/03/07 00:29:09;;;;;;;12.02;6.93;;;3.60;99.90;;;;;;5092125;27;20138;-80
2023/03/07 00:31:36;;;;;;;14.75;6.78;;;3.60;99.90;;;;;;5092103;27;20050;-80
2023/03/07 00:34:02;;;;;;;17.75;6.10;;;3.50;99.90;;;;;;5091690;27;20078;-80
2023/03/07 00:36:28;;;;;;;13.52;4.88;;;3.50;99.90;;;;;;5092222;27;20394;-80
2023/03/07 00:38:54;;;;;;;13.85;4.22;;;3.50;99.90;;;;;;5109519;27;20261;-80
2023/03/07 00:41:25;;;;;;;10.05;3.25;;;4.90;99.90;;;;;;5092325;27;20118;-80
2023/03/07 00:43:51;;;;;;;6.82;2.78;;;3.50;99.90;;;;;;5117991;27;20047;-80
2023/03/07 00:46:19;;;;;;;14.43;3.45;;;3.40;99.90;;;;;;5117311;28;20039;-81
2023/03/07 00:48:45;;;;;;;10.93;3.22;;;3.40;99.90;;;;;;5117150;27;20075;-81
2023/03/07 00:51:13;;;;;;;10.85;2.92;;;4.50;99.90;;;;;;5079366;28;20043;-80
2023/03/07 00:53:39;;;;;;;9.00;2.25;;;4.60;99.90;;;;;;5108605;28;20039;-80
2023/03/07 00:56:12;;;;;;;5.95;2.47;;;3.50;99.90;;;;;;5108850;27;20099;-80
2023/03/07 00:58:38;;;;;;;;;;;3.60;99.90;;;;;;5092029;28;20179;-80
2023/03/07 01:01:05;;;;;;;14.00;2.13;;;3.60;99.90;;;;;;5108315;28;19976;-80
2023/03/07 01:03:33;;;;;;;10.52;2.10;;;3.60;99.90;;;;;;5091203;28;20076;-80
2023/03/07 01:06:03;;;;;;;15.07;2.25;;;3.70;99.90;;;;;;5075175;28;20406;-79
2023/03/07 01:08:30;;;;;;;9.68;2.05;;;3.70;99.90;;;;;;5108534;28;20047;-80
2023/03/07 01:11:03;;;;;;;16.60;1.65;;;4.50;99.90;;;;;;5092012;28;20122;-81
2023/03/07 01:13:29;;;;;;;8.27;1.73;;;3.80;99.90;;;;;;5092157;28;20062;-80
2023/03/07 01:15:55;;;;;;;18.33;1.77;;;3.80;99.90;;;;;;5075314;28;20074;-80
2023/03/07 01:18:21;;;;;;;9.25;1.58;;;3.80;99.90;;;;;;5116541;28;20039;-80
2023/03/07 01:20:47;;;;;;;16.27;1.80;;;3.80;99.90;;;;;;5094817;28;20210;-80
2023/03/07 01:23:13;;;;;;;10.05;1.65;;;3.80;99.90;;;;;;5076204;28;20100;-80
2023/03/07 01:25:42;;;;;;;3.58;1.13;;;3.70;99.90;;;;;;5109184;28;20046;-80
2023/03/07 01:28:12;;;;;;;18.55;1.98;;;3.80;99.90;;;;;;5108479;28;20046;-81
2023/03/07 01:30:37;;;;;;;11.70;2.13;;;3.80;99.90;;;;;;5091745;28;20039;-80
2023/03/07 01:33:03;;;;;;;8.27;1.40;;;3.70;99.90;;;;;;5058027;28;20106;-80
2023/03/07 01:35:29;;;;;;;12.23;1.35;;;4.40;99.90;;;;;;5073974;28;20035;-80
2023/03/07 01:37:55;;;;;;;17.05;1.98;;;3.70;99.90;;;;;;5107589;28;20043;-80
2023/03/07 01:40:22;;;;;;;11.68;1.17;;;4.50;99.90;;;;;;5107645;28;20043;-80
2023/03/07 01:42:48;;;;;;;11.38;0.88;;;3.70;99.90;;;;;;5107925;28;20074;-80
2023/03/07 01:45:14;;;;;;;9.27;2.42;;;3.70;99.90;;;;;;5108025;28;20138;-80
2023/03/07 01:47:42;;;;;;;18.80;1.95;;;3.60;99.90;;;;;;5091298;28;20666;-80
2023/03/07 01:50:15;;;;;;;17.50;1.73;;;3.60;99.90;;;;;;5074490;28;20043;-80
2023/03/07 01:53:01;;;;;;;11.38;1.55;;;3.60;99.90;;;;;;5090482;28;20143;-80
2023/03/07 01:55:30;;;;;;;15.20;1.83;;;3.90;99.90;;;;;;5090449;28;20047;-81
2023/03/07 01:57:59;;;;;;;12.25;1.20;;;4.50;99.90;;;;;;5091285;27;20104;-81
2023/03/07 02:00:28;;;;;;;12.35;0.70;;;3.70;99.90;;;;;;5111538;27;20074;-81
2023/03/07 02:03:34;;;;;;;10.05;1.05;;;3.40;99.90;;;;;;5111438;27;20506;-81
2023/03/07 02:06:04;;;;;;;11.43;1.50;;;3.40;99.90;;;;;;5090479;27;20059;-81
2023/03/07 02:08:31;;;;;;;7.75;1.33;;;3.40;99.90;;;;;;5094485;27;20042;-81
2023/03/07 02:10:57;;;;;;;17.33;1.83;;;3.90;99.90;;;;;;5110777;27;20490;-81
2023/03/07 02:13:23;;;;;;;12.32;1.35;;;4.50;99.90;;;;;;5111348;27;20054;-81
2023/03/07 02:15:49;;;;;;;12.43;1.00;;;3.30;99.90;;;;;;5077051;27;20043;-81
2023/03/07 02:18:20;;;;;;;12.02;1.30;;;3.30;99.90;;;;;;5077292;27;20126;-81
2023/03/07 02:20:59;;;;;;;14.50;1.38;;;3.20;99.90;;;;;;5094159;27;20039;-81
2023/03/07 02:23:46;;;;;;;8.98;0.90;;;3.70;99.90;;;;;;5111110;27;20122;-81
2023/03/07 02:26:21;;;;;;;15.48;1.90;;;4.80;99.90;;;;;;5094329;27;20130;-81
2023/03/07 02:28:48;;;;;;;8.80;1.10;;;3.30;99.90;;;;;;5094069;27;20050;-81
2023/03/07 02:31:13;;;;;;;15.82;1.15;;;3.30;99.90;;;;;;5110787;27;20485;-79
2023/03/07 02:33:39;;;;;;;6.20;1.00;;;3.40;99.90;;;;;;5093509;27;20043;-81
2023/03/07 02:36:19;;;;;;;10.15;1.25;;;3.40;99.90;;;;;;5110746;27;20046;-81
2023/03/07 02:38:47;;;;;;;6.97;1.10;;;4.70;99.90;;;;;;5093879;27;20084;-81
2023/03/07 02:41:20;;;;;;;11.38;0.80;;;3.40;99.90;;;;;;5093787;27;20046;-81
2023/03/07 02:43:45;;;;;;;14.05;1.23;;;3.30;99.90;;;;;;5093613;27;20093;-81
2023/03/07 02:46:11;;;;;;;10.38;1.80;;;3.30;99.90;;;;;;5110346;27;20074;-81
2023/03/07 02:48:38;;;;;;;13.20;1.17;;;3.30;99.90;;;;;;5110269;27;20387;-81
2023/03/07 02:51:03;;;;;;;15.60;1.45;;;3.20;99.90;;;;;;5093629;27;20047;-81
2023/03/07 02:53:29;;;;;;;7.68;0.75;;;3.20;99.90;;;;;;5076506;27;20045;-81
2023/03/07 02:55:55;;;;;;;6.38;1.05;;;3.50;99.90;;;;;;5093621;27;20050;-82
2023/03/07 02:58:20;;;;;;;16.48;1.30;;;4.60;99.90;;;;;;5076192;27;20405;-81
2023/03/07 03:00:46;;;;;;;15.25;1.58;;;3.10;99.90;;;;;;5093105;27;20039;-81
2023/03/07 03:03:12;;;;;;;8.93;1.10;;;3.00;99.90;;;;;;5093480;27;20055;-80
2023/03/07 03:05:37;;;;;;;9.07;1.42;;;3.10;99.90;;;;;;5076252;27;20474;-82
2023/03/07 03:08:03;;;;;;;8.15;0.55;;;3.10;99.90;;;;;;5110225;27;20126;-82
2023/03/07 03:10:29;;;;;;;10.52;0.85;;;3.10;99.90;;;;;;5110384;27;20039;-81
2023/03/07 03:12:55;;;;;;;12.13;0.95;;;3.00;99.90;;;;;;5093574;27;20498;-82
2023/03/07 03:15:21;;;;;;;9.35;0.77;;;3.30;99.90;;;;;;5110300;27;20071;-81
2023/03/07 03:17:46;;;;;;;10.77;1.38;;;3.00;99.90;;;;;;5110668;27;20345;-81
2023/03/07 03:20:12;;;;;;;4.80;0.90;;;3.00;99.90;;;;;;5076127;27;20057;-81
2023/03/07 03:22:39;;;;;;;12.98;1.08;;;3.00;99.90;;;;;;5076049;27;20039;-81
2023/03/07 03:25:08;;;;;;;12.45;1.35;;;3.10;99.90;;;;;;5075809;27;20050;-79
2023/03/07 03:27:35;;;;;;;6.97;0.88;;;3.00;99.90;;;;;;5093063;27;20348;-79
2023/03/07 03:30:01;;;;;;;11.45;1.38;;;3.00;99.90;;;;;;5093420;27;20379;-79
2023/03/07 03:32:26;;;;;;;11.07;1.20;;;3.00;99.90;;;;;;5109456;27;20057;-79
2023/03/07 03:34:52;;;;;;;5.60;0.65;;;2.90;99.90;;;;;;5109752;27;20058;-79
2023/03/07 03:37:18;;;;;;;9.88;1.08;;;3.30;99.90;;;;;;5110003;27;20470;-79
2023/03/07 03:39:44;;;;;;;5.93;0.65;;;2.90;99.90;;;;;;5092233;27;20035;-79
2023/03/07 03:42:09;;;;;;;11.63;0.98;;;2.90;99.90;;;;;;5109049;27;20087;-81
2023/03/07 03:44:35;;;;;;;9.75;0.95;;;2.90;99.90;;;;;;5092480;27;20481;-79
2023/03/07 03:47:01;;;;;;;13.63;1.33;;;4.30;99.90;;;;;;5075631;27;20045;-79
2023/03/07 03:49:26;;;;;;;4.57;0.95;;;4.30;99.90;;;;;;5109203;27;20131;-80
2023/03/07 03:51:52;;;;;;;12.25;1.60;;;4.20;99.90;;;;;;5128096;27;20383;-79
2023/03/07 03:54:18;;;;;;;7.78;1.50;;;4.10;99.90;;;;;;5128002;27;20489;-79
2023/03/07 03:56:44;;;;;;;11.68;0.85;;;4.40;99.90;;;;;;5109016;27;20055;-80
2023/03/07 03:59:09;;;;;;;8.00;1.20;;;2.80;99.90;;;;;;5075210;27;20051;-80
2023/03/07 04:01:35;;;;;;;8.73;0.73;;;2.80;99.90;;;;;;5109007;27;20051;-80
2023/03/07 04:04:01;;;;;;;7.03;0.98;;;2.70;99.90;;;;;;5109747;27;20031;-79
2023/03/07 04:06:29;;;;;;;6.38;0.65;;;2.70;99.90;;;;;;5108714;27;20050;-79
2023/03/07 04:08:56;;;;;;;4.70;0.88;;;4.00;99.90;;;;;;5127974;27;20046;-79
2023/03/07 04:11:23;;;;;;;6.68;1.02;;;4.40;99.90;;;;;;5108864;27;20486;-79
2023/03/07 04:13:49;;;;;;;14.75;1.52;;;3.10;99.90;;;;;;5091571;27;20047;-79
2023/03/07 04:16:15;;;;;;;12.82;1.48;;;2.70;99.90;;;;;;5109177;27;20038;-79
2023/03/07 04:18:41;;;;;;;14.98;1.48;;;3.10;99.90;;;;;;5127534;27;20042;-80
2023/03/07 04:21:09;;;;;;;10.00;1.27;;;2.80;99.90;;;;;;5108043;27;20054;-80
2023/03/07 04:23:36;;;;;;;10.10;1.45;;;2.80;99.90;;;;;;5091404;27;20135;-79
2023/03/07 04:26:04;;;;;;;10.77;2.33;;;3.50;99.90;;;;;;5108804;27;20039;-79
2023/03/07 04:31:07;;;;;;;11.93;0.90;;;2.80;99.90;;;;;;5109021;27;20437;-79
2023/03/07 04:33:33;;;;;;;13.32;1.35;;;2.80;99.90;;;;;;5091485;27;20054;-80
2023/03/07 04:35:59;;;;;;;7.30;0.88;;;2.80;99.90;;;;;;5127167;27;20039;-79
2023/03/07 04:38:24;;;;;;;3.97;0.90;;;3.10;99.90;;;;;;5109444;27;20039;-80
2023/03/07 04:40:53;;;;;;;8.50;1.10;;;2.80;99.90;;;;;;5108597;27;20039;-80
2023/03/07 04:43:20;;;;;;;7.90;1.00;;;2.80;99.90;;;;;;5127704;27;20043;-79
2023/03/07 04:45:46;;;;;;;5.80;1.55;;;2.80;99.90;;;;;;5091737;27;20047;-79
2023/03/07 04:48:11;;;;;;;12.77;1.02;;;2.80;99.90;;;;;;5108596;27;20104;-79
2023/03/07 04:50:37;;;;;;;5.60;1.27;;;4.30;99.90;;;;;;5127556;27;20085;-81
2023/03/07 04:53:03;;;;;;;12.30;0.95;;;2.80;99.90;;;;;;5128274;27;20043;-79
2023/03/07 04:55:29;;;;;;;6.35;1.63;;;2.80;99.90;;;;;;5109004;28;20049;-79
2023/03/07 04:57:56;;;;;;;17.55;1.20;;;2.80;99.90;;;;;;5127643;27;20487;-80
2023/03/07 05:00:22;;;;;;;13.05;1.00;;;2.90;99.90;;;;;;5127886;27;20047;-80
2023/03/07 05:02:48;;;;;;;12.90;1.30;;;2.90;99.90;;;;;;5127754;28;20039;-80
2023/03/07 05:05:15;;;;;;;8.85;0.68;;;2.90;99.90;;;;;;5127525;28;20378;-78
2023/03/07 05:07:42;;;;;;;11.23;1.38;;;3.00;99.90;;;;;;5127962;28;20418;-79
2023/03/07 05:10:09;;;;;;;5.35;0.98;;;3.30;99.90;;;;;;5127106;28;20393;-80
2023/03/07 05:12:34;;;;;;;8.05;1.02;;;3.10;99.90;;;;;;5108185;28;20043;-80
2023/03/07 05:15:00;;;;;;;6.20;0.88;;;3.10;99.90;;;;;;5091027;28;20116;-80
2023/03/07 05:17:28;;;;;;;4.57;0.73;;;4.10;99.90;;;;;;5127071;28;20047;-80
2023/03/07 05:19:54;;;;;;;5.55;1.10;;;3.10;99.90;;;;;;5090864;28;20051;-80
2023/03/07 05:22:20;;;;;;;7.68;1.00;;;3.60;99.90;;;;;;5108128;28;20051;-80
2023/03/07 05:24:45;;;;;;;9.98;1.10;;;3.10;99.90;;;;;;5108433;28;20046;-80
2023/03/07 05:27:11;;;;;;;6.93;1.00;;;3.70;99.90;;;;;;5108131;28;20439;-79
2023/03/07 05:29:37;;;;;;;8.93;1.40;;;3.00;99.90;;;;;;5091845;28;20043;-80
2023/03/07 05:32:03;;;;;;;6.93;1.65;;;3.00;99.90;;;;;;5108959;27;20443;-83
2023/03/07 05:34:29;;;;;;;6.72;0.70;;;3.00;99.90;;;;;;5112441;27;20498;-80
2023/03/07 05:36:57;;;;;;;14.02;1.15;;;3.00;99.90;;;;;;5130891;27;20047;-80
2023/03/07 05:39:23;;;;;;;4.15;0.75;;;3.00;99.90;;;;;;5078669;27;20039;-80
2023/03/07 05:41:49;;;;;;;10.02;0.82;;;4.30;99.90;;;;;;5112273;27;20219;-80
2023/03/07 05:44:15;;;;;;;5.38;0.52;;;3.00;99.90;;;;;;5112121;27;20059;-80
2023/03/07 05:46:41;;;;;;;8.45;0.80;;;4.20;99.90;;;;;;5111880;27;20073;-81
2023/03/07 05:49:07;;;;;;;5.25;0.77;;;3.00;99.90;;;;;;5111421;27;20074;-81
2023/03/07 05:51:33;;;;;;;6.80;1.00;;;4.50;99.90;;;;;;5112109;27;20050;-80
2023/03/07 05:53:59;;;;;;;11.98;1.25;;;4.40;99.90;;;;;;5111546;27;20043;-81
2023/03/07 05:56:25;;;;;;;13.70;1.08;;;2.90;99.90;;;;;;5094539;27;20051;-80
2023/03/07 05:58:50;;;;;;;10.63;1.13;;;3.70;99.90;;;;;;5111526;27;20430;-80
2023/03/07 06:01:16;;;;;;;9.38;1.83;;;2.90;99.90;;;;;;5094229;27;20031;-80
2023/03/07 06:03:43;;;;;;;5.57;1.00;;;3.30;99.90;;;;;;5077647;27;20050;-83
2023/03/07 06:06:11;;;;;;;10.88;1.45;;;4.20;99.90;;;;;;5111590;27;20069;-82
2023/03/07 06:08:37;;;;;;;6.78;0.50;;;2.90;99.90;;;;;;5077795;27;20035;-84
2023/03/07 06:11:02;;;;;;;9.25;0.63;;;2.90;99.90;;;;;;5060752;27;20051;-84
2023/03/07 06:13:29;;;;;;;5.38;1.45;;;2.90;99.90;;;;;;5110753;27;20047;-83
2023/03/07 06:15:56;;;;;;;4.43;0.32;;;2.80;99.90;;;;;;5078000;27;20546;-85
2023/03/07 06:18:23;;;;;;;6.22;0.70;;;4.10;99.90;;;;;;5111015;27;20039;-86
2023/03/07 06:20:57;;;;;;;6.03;0.52;;;2.60;99.90;;;;;;5094592;27;20043;-87
2023/03/07 06:23:24;;;;;;;10.65;0.75;;;2.60;99.90;;;;;;5094161;27;20053;-83
2023/03/07 06:25:50;;;;;;;6.25;0.90;;;2.60;99.90;;;;;;5077605;27;20027;-83
2023/03/07 06:28:15;;;;;;;5.55;0.68;;;3.80;99.90;;;;;;5110832;27;20091;-82
2023/03/07 06:30:41;;;;;;;6.55;1.17;;;3.90;99.90;;;;;;5093564;27;20091;-83
2023/03/07 06:33:07;;;;;;;7.40;1.20;;;2.50;99.90;;;;;;5110967;27;20072;-83
2023/03/07 06:35:33;;;;;;;6.85;0.80;;;3.10;99.90;;;;;;5076585;27;20035;-82
2023/03/07 06:37:59;;;;;;;9.85;0.70;;;2.60;99.90;;;;;;5094359;27;20071;-82
2023/03/07 06:40:25;;;;;;;6.72;1.38;;;2.70;99.90;;;;;;5129417;27;20575;-83
2023/03/07 06:42:52;;;;;;;6.75;0.47;;;2.70;99.90;;;;;;5129259;27;20134;-83
2023/03/07 06:45:18;;;;;;;4.78;0.65;;;2.70;99.90;;;;;;5128195;27;20081;-82
2023/03/07 06:47:43;;;;;;;5.97;0.98;;;4.10;99.90;;;;;;5128770;27;20086;-82
2023/03/07 06:50:10;;;;;;;8.63;0.75;;;3.20;99.90;;;;;;5129350;27;20046;-82
2023/03/07 06:52:35;;;;;;;7.03;0.85;;;2.80;99.90;;;;;;5110333;27;20032;-82
2023/03/07 06:55:02;;;;;;;7.93;0.60;;;3.40;99.90;;;;;;5129172;27;20046;-83
2023/03/07 06:57:28;;;;;;;5.18;0.90;;;2.80;99.90;;;;;;5093370;27;20059;-82
2023/03/07 06:59:54;;;;;;;5.97;0.60;;;2.80;99.90;;;;;;5093586;27;20074;-82
2023/03/07 07:02:20;;;;;;;4.28;0.90;;;2.90;99.90;;;;;;5128898;27;20047;-82
2023/03/07 07:04:46;;;;;;;6.85;0.70;;;2.90;99.90;;;;;;5077008;27;20043;-83
2023/03/07 07:07:11;;;;;;;7.82;2.08;;;2.90;99.90;;;;;;5110108;27;20059;-82
2023/03/07 07:09:37;;;;;;;6.93;1.13;;;2.90;99.90;;;;;;5092868;27;20047;-82
2023/03/07 07:12:04;;;;;;;9.13;0.55;;;2.90;99.90;;;;;;5093792;27;20043;-82
2023/03/07 07:14:32;;;;;;;4.63;1.17;;;2.90;99.90;;;;;;5110482;27;20317;-82
2023/03/07 07:16:57;;;;;;;7.72;0.60;;;2.90;99.90;;;;;;5128584;27;20047;-82
2023/03/07 07:19:25;;;;;;;4.15;0.70;;;4.50;99.90;;;;;;5110356;27;20072;-82
2023/03/07 07:21:51;;;;;;;6.55;0.77;;;3.00;99.90;;;;;;5093387;27;20054;-82
2023/03/07 07:24:17;;;;;;;5.70;0.80;;;4.00;99.90;;;;;;5093321;27;20483;-82
2023/03/07 07:26:45;;;;;;;9.95;0.80;;;3.00;99.90;;;;;;5109533;27;20550;-82
2023/03/07 07:29:11;;;;;;;7.32;0.77;;;3.00;99.90;;;;;;5109795;27;20047;-82
2023/03/07 07:31:37;;;;;;;3.63;0.40;;;4.30;99.90;;;;;;5092959;27;20316;-82
2023/03/07 07:34:03;;;;;;;2.80;0.45;;;3.90;99.90;;;;;;5128826;27;20501;-82
2023/03/07 07:36:29;;;;;;;3.92;0.60;;;3.10;99.90;;;;;;5092473;27;20493;-81
2023/03/07 07:38:54;;;;;;;1.27;0.40;;;3.10;99.90;;;;;;5093694;27;20042;-82
2023/03/07 07:41:20;;;;;;;2.13;1.00;;;4.60;99.90;;;;;;5092501;27;20502;-81
2023/03/07 07:43:48;;;;;;;4.93;0.80;;;3.10;99.90;;;;;;5092959;27;20090;-82
2023/03/07 07:46:14;;;;;;;7.35;0.85;;;3.20;99.90;;;;;;5110557;27;20452;-82
2023/03/07 07:48:41;;;;;;;5.10;0.88;;;3.20;99.90;;;;;;5128268;27;20096;-82
2023/03/07 07:51:07;;;;;;;4.35;0.50;;;4.10;99.90;;;;;;5092634;27;20156;-81
2023/03/07 07:53:34;;;;;;;5.90;0.70;;;3.20;99.90;;;;;;5108940;27;20125;-81
2023/03/07 07:56:00;;;;;;;7.10;0.63;;;3.20;99.90;;;;;;5092467;27;20195;-81
2023/03/07 07:58:25;;;;;;;3.78;0.60;;;3.20;99.90;;;;;;5091691;27;20134;-81
2023/03/07 08:00:51;;;;;;;10.40;1.98;;;3.70;99.90;;;;;;5108742;27;20152;-81
2023/03/07 08:03:17;;;;;;;8.38;1.05;;;3.30;99.90;;;;;;5092044;27;20039;-81
2023/03/07 08:05:44;;;;;;;9.57;1.20;;;3.30;99.90;;;;;;5127402;27;20050;-81
2023/03/07 08:08:10;;;;;;;9.02;1.15;;;3.40;99.90;;;;;;5109607;27;20074;-82
2023/03/07 08:10:36;;;;;;;8.77;0.77;;;3.40;99.90;;;;;;5109222;27;20550;-81
2023/03/07 08:13:02;;;;;;;14.52;0.85;;;3.40;99.90;;;;;;5109599;27;20103;-81
2023/03/07 08:15:27;;;;;;;12.43;2.65;;;3.40;99.90;;;;;;5092158;27;20059;-81
2023/03/07 08:17:53;;;;;;;7.65;1.08;;;3.50;99.90;;;;;;5127547;27;20498;-82
2023/03/07 08:20:22;;;;;;;6.47;1.27;;;3.60;99.90;;;;;;5127637;27;20118;-82
2023/03/07 08:22:49;;;;;;;5.68;1.20;;;3.60;99.90;;;;;;5091382;27;20089;-83
2023/03/07 08:25:19;;;;;;;5.72;0.60;;;3.70;99.90;;;;;;5108874;27;20047;-82
2023/03/07 08:27:45;;;;;;;5.80;1.08;;;3.70;99.90;;;;;;5127651;27;20039;-82
2023/03/07 08:30:12;;;;;;;7.57;1.50;;;3.80;99.90;;;;;;5127582;27;20050;-82
2023/03/07 08:32:38;;;;;;;8.77;1.15;;;3.70;99.90;;;;;;5127257;27;20062;-82
2023/03/07 08:35:04;;;;;;;11.45;1.10;;;3.70;99.90;;;;;;5126700;27;20417;-84
2023/03/07 08:37:29;;;;;;;4.95;0.90;;;3.60;99.90;;;;;;5092133;27;20081;-81
2023/03/07 08:39:55;;;;;;;7.70;0.50;;;4.20;99.90;;;;;;5126973;27;20435;-83
2023/03/07 08:42:21;;;;;;;5.45;0.88;;;3.50;99.90;;;;;;5108733;27;20054;-82
2023/03/07 08:44:46;;;;;;;5.25;0.52;;;3.40;99.90;;;;;;5108100;27;20083;-82
2023/03/07 08:47:12;;;;;;;8.02;1.00;;;3.70;99.90;;;;;;5091878;27;20062;-82
2023/03/07 08:49:39;;;;;;;6.40;0.80;;;3.30;99.90;;;;;;5091002;27;20058;-83
2023/03/07 08:52:05;;;;;;;6.00;0.68;;;3.40;99.90;;;;;;5108029;27;20043;-82
2023/03/07 08:54:31;;;;;;;1.98;0.50;;;4.80;99.90;;;;;;5108197;27;20074;-83
2023/03/07 08:56:58;;;;;;;12.63;1.05;;;3.40;99.90;;;;;;5074334;27;20126;-82
2023/03/07 08:59:24;;;;;;;5.68;0.63;;;3.50;99.90;;;;;;5108508;27;20047;-83
2023/03/07 09:01:49;;;;;;;6.90;0.63;;;3.60;99.90;;;;;;5107876;28;20053;-83
2023/03/07 09:04:15;;;;;;;3.35;0.50;;;4.20;99.90;;;;;;5127640;28;20039;-83
2023/03/07 09:06:41;;;;;;;5.22;0.80;;;3.70;99.90;;;;;;5125709;27;20031;-82
2023/03/07 09:09:06;;;;;;;5.55;0.60;;;3.80;99.90;;;;;;5126958;28;20031;-82
2023/03/07 09:11:32;;;;;;;8.70;0.98;;;3.80;99.90;;;;;;5126872;28;20051;-83
2023/03/07 09:13:58;;;;;;;5.97;0.90;;;3.80;99.90;;;;;;5126190;28;20086;-83
2023/03/07 09:16:23;;;;;;;25.83;3.95;;;4.30;99.90;;;;;;5108493;28;20075;-83
2023/03/07 09:18:49;;;;;;;6.05;1.15;;;3.80;99.90;;;;;;5108372;28;20043;-82
2023/03/07 09:21:15;;;;;;;8.75;0.93;;;3.80;99.90;;;;;;5127096;28;20035;-82
2023/03/07 09:23:44;;;;;;;4.43;0.80;;;3.80;99.90;;;;;;5126032;28;20031;-81
2023/03/07 09:26:09;;;;;;;7.30;1.20;;;5.10;99.90;;;;;;5107859;28;20160;-79
2023/03/07 09:28:35;;;;;;;5.28;0.80;;;3.80;99.90;;;;;;5126543;28;20130;-80
2023/03/07 09:31:09;;;;;;;11.05;1.05;;;3.80;99.90;;;;;;5107597;28;20047;-80
2023/03/07 09:33:35;;;;;;;11.00;2.67;;;3.80;99.90;;;;;;5126807;28;20039;-79
2023/03/07 09:36:09;;;;;;;7.30;0.80;;;3.80;99.90;;;;;;5126263;28;20107;-80
2023/03/07 09:38:35;;;;;;;7.97;1.10;;;3.80;99.90;;;;;;5126907;28;20091;-81
2023/03/07 09:41:55;;;;;;;11.23;1.13;;;4.00;99.90;;;;;;5090956;28;20035;-80
2023/03/07 09:44:31;;;;;;;9.15;1.02;;;3.90;99.90;;;;;;5042590;28;20068;-80
2023/03/07 09:47:10;;;;;;;5.05;1.50;;;3.80;99.90;;;;;;5107111;28;20090;-80
2023/03/07 09:49:45;;;;;;;9.55;0.90;;;4.00;99.90;;;;;;5126117;28;20075;-80
2023/03/07 09:52:18;;;;;;;10.20;1.25;;;3.90;99.90;;;;;;5107714;28;20531;-80
2023/03/07 09:55:00;;;;;;;6.20;0.80;;;4.30;99.90;;;;;;5107996;28;20150;-80
2023/03/07 09:57:33;;;;;;;4.47;0.70;;;3.80;99.90;;;;;;5107128;28;20058;-80
2023/03/07 10:00:15;;;;;;;8.23;0.80;;;3.80;99.90;;;;;;5091281;28;20104;-80
2023/03/07 10:02:45;;;;;;;8.95;1.25;;;3.80;99.90;;;;;;5107591;28;20100;-80
2023/03/07 10:05:17;;;;;;;5.43;0.85;;;3.80;99.90;;;;;;5107272;28;20043;-80
2023/03/07 10:07:46;;;;;;;4.63;0.80;;;3.90;99.90;;;;;;5091025;28;20088;-80
2023/03/07 10:10:18;;;;;;;8.23;1.02;;;3.90;99.90;;;;;;5107335;28;20146;-80
2023/03/07 10:12:56;;;;;;;3.28;0.63;;;3.90;99.90;;;;;;5107908;28;20139;-80
2023/03/07 10:15:37;;;;;;;10.13;1.42;;;4.00;99.90;;;;;;5107234;28;20043;-80
2023/03/07 10:18:21;;;;;;;8.73;0.75;;;4.10;99.90;;;;;;5107149;27;20139;-81
2023/03/07 10:21:11;;;;;;;5.43;1.80;;;4.20;99.90;;;;;;5110947;27;20046;-81
2023/03/07 10:23:56;;;;;;;2.67;0.75;;;4.20;99.90;;;;;;5110990;27;20181;-81
2023/03/07 10:26:28;;;;;;;3.95;0.90;;;4.30;99.90;;;;;;5110512;27;20125;-81
2023/03/07 10:28:58;;;;;;;12.65;0.82;;;4.30;99.90;;;;;;5094086;27;20455;-80
2023/03/07 10:31:38;;;;;;;11.20;2.08;;;4.50;99.90;;;;;;5111048;27;20058;-81
2023/03/07 10:34:30;;;;;;;4.15;0.60;;;4.50;99.90;;;;;;5111085;27;20047;-81
2023/03/07 10:37:15;;;;;;;7.43;0.90;;;4.50;99.90;;;;;;5091304;27;20405;-79
2023/03/07 10:39:55;;;;;;;7.00;1.05;;;4.50;99.90;;;;;;5110141;27;20490;-79
2023/03/07 10:42:22;;;;;;;7.82;0.70;;;4.50;99.90;;;;;;5094340;27;20397;-80
2023/03/07 10:44:50;;;;;;;7.47;0.68;;;4.40;99.90;;;;;;5110223;27;20133;-80
2023/03/07 10:47:27;;;;;;;6.70;0.73;;;4.40;99.90;;;;;;5110890;27;20051;-80
2023/03/07 10:50:19;;;;;;;9.20;0.98;;;4.50;99.90;;;;;;5110269;27;20055;-80
2023/03/07 10:52:52;;;;;;;4.82;0.60;;;4.60;99.90;;;;;;5112885;27;20083;-80
2023/03/07 10:55:41;;;;;;;8.65;1.27;;;3.90;99.90;;;;;;5093833;27;20138;-80
2023/03/07 10:58:14;;;;;;;6.93;1.25;;;5.10;99.90;;;;;;5092851;27;20481;-81
2023/03/07 11:00:41;;;;;;;;;;;5.20;99.90;;;;;;5093837;27;20049;-81
2023/03/07 11:03:30;;;;;;;7.57;0.85;;;6.30;99.90;;;;;;5110702;27;20010;-80
2023/03/07 11:05:56;;;;;;;5.13;0.60;;;5.50;99.90;;;;;;5092972;27;20039;-80
2023/03/07 11:08:27;;;;;;;10.57;0.77;;;5.60;99.90;;;;;;5111143;27;20046;-81
2023/03/07 11:10:52;;;;;;;6.18;0.88;;;5.70;99.90;;;;;;5092780;27;20588;-81
2023/03/07 11:13:20;;;;;;;8.95;1.10;;;5.80;99.90;;;;;;5092699;27;20059;-80
2023/03/07 11:15:47;;;;;;;5.70;1.13;;;6.40;99.90;;;;;;5093083;27;20042;-80
2023/03/07 11:18:25;;;;;;;8.52;1.27;;;5.40;99.90;;;;;;5109399;27;20085;-81
2023/03/07 11:20:51;;;;;;;6.93;0.98;;;7.30;99.90;;;;;;5093167;27;20043;-80
2023/03/07 11:23:18;;;;;;;6.45;0.90;;;6.50;99.90;;;;;;5092774;27;20043;-81
2023/03/07 11:25:44;;;;;;;7.10;0.80;;;6.60;99.90;;;;;;5110611;27;20043;-80
2023/03/07 11:28:32;;;;;;;11.65;1.17;;;6.60;99.90;;;;;;5109460;27;20120;-80
2023/03/07 11:31:07;;;;;;;6.30;0.75;;;6.40;99.90;;;;;;5092302;27;20059;-80
2023/03/07 11:33:35;;;;;;;9.30;1.13;;;6.00;99.90;;;;;;5092777;27;20124;-80
2023/03/07 11:36:17;;;;;;;7.60;0.70;;;5.50;99.90;;;;;;5092603;27;20055;-80
2023/03/07 11:38:51;;;;;;;5.57;0.93;;;5.10;99.90;;;;;;5110184;27;20364;-82
2023/03/07 11:41:20;;;;;;;12.25;1.23;;;4.80;99.90;;;;;;5109362;27;20042;-82
2023/03/07 11:43:58;;;;;;;4.07;0.60;;;4.60;99.90;;;;;;5092494;27;20066;-79
2023/03/07 11:46:30;;;;;;;11.77;1.40;;;4.50;99.90;;;;;;5109850;27;20044;-81
2023/03/07 11:49:33;;;;;;;5.63;0.85;;;4.40;99.90;;;;;;5092028;27;20039;-80
2023/03/07 11:52:30;;;;;;;9.65;0.82;;;4.40;99.90;;;;;;5109016;27;20039;-80
2023/03/07 11:55:19;;;;;;;8.82;0.65;;;4.50;99.90;;;;;;5109371;27;20525;-81
2023/03/07 11:58:23;;;;;;;8.25;1.00;;;4.50;99.90;;;;;;5108362;27;20074;-80
2023/03/07 12:00:58;;;;;;;14.32;1.40;;;4.40;99.90;;;;;;5109897;27;20043;-80
2023/03/07 12:03:32;;;;;;;8.43;1.95;;;4.40;99.90;;;;;;5109357;27;20665;-81
2023/03/07 12:06:24;;;;;;;7.55;0.77;;;4.60;99.90;;;;;;5109354;27;20086;-80
2023/03/07 12:09:18;;;;;;;7.50;1.67;;;4.80;99.90;;;;;;5092529;27;20039;-80
2023/03/07 12:11:54;;;;;;;6.13;1.00;;;5.00;99.90;;;;;;5069977;27;20104;-80
2023/03/07 12:14:41;;;;;;;3.63;0.60;;;5.20;99.90;;;;;;5091774;27;20046;-80
2023/03/07 12:17:28;;;;;;;6.18;0.88;;;5.50;99.90;;;;;;5092285;27;20076;-80
2023/03/07 12:20:36;;;;;;;5.70;0.60;;;5.70;99.90;;;;;;5108724;27;20103;-80
2023/03/07 12:23:15;;;;;;;10.60;2.22;;;6.10;99.90;;;;;;5081916;27;20704;-80
2023/03/07 12:25:44;;;;;;;6.72;0.60;;;7.60;99.90;;;;;;5109696;27;20047;-80
2023/03/07 12:28:32;;;;;;;7.78;0.50;;;6.50;99.90;;;;;;5091681;27;20271;-80
2023/03/07 12:31:14;;;;;;;4.85;0.35;;;6.70;99.90;;;;;;5108280;27;20051;-80
2023/03/07 12:34:05;;;;;;;4.18;0.82;;;6.90;99.90;;;;;;5108803;27;20043;-80
2023/03/07 12:36:33;;;;;;;2.97;0.52;;;7.00;99.90;;;;;;5108475;27;20050;-80
2023/03/07 12:38:59;;;;;;;7.30;0.32;;;7.10;99.90;;;;;;5108090;27;20046;-80
2023/03/07 12:41:57;;;;;;;3.22;0.50;;;7.30;99.90;;;;;;5108392;28;20035;-80
2023/03/07 12:45:08;;;;;;;8.02;1.27;;;7.30;99.90;;;;;;5054695;27;20142;-80
2023/03/07 12:47:52;;;;;;;9.45;1.42;;;7.40;99.90;;;;;;5054325;27;20498;-80
2023/03/07 12:50:42;;;;;;;9.48;0.47;;;7.60;99.90;;;;;;5091358;27;20047;-80
2023/03/07 12:53:39;;;;;;;4.75;0.40;;;7.70;99.90;;;;;;5108305;28;20047;-80
2023/03/07 12:56:18;;;;;;;5.57;0.40;;;7.80;99.90;;;;;;5107805;27;20061;-80
2023/03/07 12:58:50;;;;;;;3.20;0.57;;;7.80;99.90;;;;;;5104783;28;20160;-81
2023/03/07 13:01:19;;;;;;;7.68;0.63;;;7.80;99.90;;;;;;5088033;28;20586;-81
2023/03/07 13:03:55;;;;;;;4.15;0.70;;;8.00;99.90;;;;;;5088106;28;20515;-81
2023/03/07 13:06:22;;;;;;;5.32;0.50;;;8.20;99.90;;;;;;5104238;28;20048;-81
2023/03/07 13:08:51;;;;;;;9.07;1.08;;;7.50;99.90;;;;;;5087631;28;20096;-81
2023/03/07 13:11:26;;;;;;;9.55;0.60;;;7.40;99.90;;;;;;5105209;28;20046;-81